Overview Statistics Trail Chart Weather Telemetry Raw packets
 

This is the latest recevied weather packets stored in our database for station/object IT9DBI-3. If no packets are shown the sender has not sent any weather packets the latest 10 day(s).

<< 17 18 19 20 21 22 23 >>
Time Temp. Humidity Pressure Rain* Wind** Luminosity Snow
1788049190 30.56° C 27% 1013.5 hPa - - - -
1788047989 31.11° C 27% 1013.5 hPa - - - -
1788046788 31.67° C 26% 1013.4 hPa - - - -
1788045587 31.11° C 27% 1013.3 hPa - - - -
1788044385 30.56° C 28% 1013.4 hPa - - - -
1788043184 30° C 29% 1013.6 hPa - - - -
1788041983 30.56° C 28% 1013.8 hPa - - - -
1788040781 32.22° C 27% 1013.8 hPa - - - -
1788039580 31.11° C 28% 1014 hPa - - - -
1788038379 31.11° C 28% 1014 hPa - - - -
1788037178 30.56° C 29% 1014.3 hPa - - - -
1788035976 31.11° C 29% 1014.3 hPa - - - -
1788034775 31.67° C 29% 1014.3 hPa - - - -
1788033574 30.56° C 32% 1014.4 hPa - - - -
1788032372 30.56° C 33% 1014.4 hPa - - - -
1788031171 31.11° C 34% 1014.5 hPa - - - -
1788029970 31.67° C 36% 1014.3 hPa - - - -
1788028769 32.22° C 39% 1014.2 hPa - - - -
1788027567 32.78° C 41% 1014.1 hPa - - - -
1788026366 32.78° C 43% 1013.9 hPa - - - -
1788025165 32.78° C 41% 1013.9 hPa - - - -
1788023963 33.89° C 44% 1013.9 hPa - - - -
1788022762 33.33° C 46% 1014 hPa - - - -
1788021561 37.22° C 48% 1013.8 hPa - - - -
1788020360 36.67° C 52% 1014 hPa - - - -

* Rain since midnight (hover to see other rain measurements)
** Current wind speed in m/s (hover to see current wind gust speed)